createdAt,value
2022-12-04T00:01:44.929Z,99723.97
2022-12-04T00:06:46.523Z,99715.00
2022-12-04T00:11:48.235Z,99708.22
2022-12-04T00:16:50.621Z,99717.78
2022-12-04T00:21:52.611Z,99705.66
2022-12-04T00:26:54.502Z,99701.81
2022-12-04T00:31:56.193Z,99698.41
2022-12-04T00:36:57.874Z,99675.78
2022-12-04T00:41:59.518Z,99686.38
2022-12-04T00:47:01.168Z,99694.34
2022-12-04T00:52:02.896Z,99686.53
2022-12-04T00:57:04.611Z,99693.03
2022-12-04T01:02:06.358Z,99683.03
2022-12-04T01:07:08.048Z,99666.25
2022-12-04T01:12:09.862Z,99697.91
2022-12-04T01:17:11.527Z,99701.84
2022-12-04T01:22:13.178Z,99700.19
2022-12-04T01:27:14.834Z,99701.13
2022-12-04T01:32:16.967Z,99701.94
2022-12-04T01:37:18.645Z,99680.16
2022-12-04T01:42:20.321Z,99684.75
2022-12-04T01:47:21.939Z,99681.09
2022-12-04T01:52:26.758Z,99679.69
2022-12-04T01:57:32.432Z,99675.84
2022-12-04T02:02:40.084Z,99660.13
2022-12-04T02:07:45.068Z,99676.81
2022-12-04T02:13:11.599Z,99693.22
2022-12-04T02:18:26.430Z,99680.25
2022-12-04T02:23:52.091Z,99669.13
2022-12-04T02:29:07.486Z,99674.47
2022-12-04T02:34:14.982Z,99672.66
2022-12-04T02:39:25.385Z,99672.22
2022-12-04T02:44:39.629Z,99697.97
2022-12-04T02:49:49.528Z,99693.94
2022-12-04T02:54:57.930Z,99678.47
2022-12-04T03:00:01.756Z,99651.22
2022-12-04T03:05:10.360Z,99668.41
2022-12-04T03:10:24.647Z,99671.66
2022-12-04T03:15:35.566Z,99677.88
2022-12-04T03:20:38.815Z,99672.59
2022-12-04T03:25:53.407Z,99654.59
2022-12-04T03:31:01.206Z,99657.38
2022-12-04T03:36:29.222Z,99637.31
2022-12-04T03:41:59.266Z,99655.09
2022-12-04T03:47:10.637Z,99660.28
2022-12-04T03:52:24.832Z,99663.75
2022-12-04T03:57:33.032Z,99658.78
2022-12-04T04:02:39.588Z,99625.59
2022-12-04T04:08:26.743Z,99658.94
2022-12-04T04:13:58.280Z,99637.94
2022-12-04T04:19:21.207Z,99653.41
2022-12-04T04:24:36.256Z,99646.56
2022-12-04T04:29:39.323Z,99669.19
2022-12-04T04:34:53.735Z,99673.47
2022-12-04T04:40:06.974Z,99654.72
2022-12-04T04:45:23.488Z,99645.59
2022-12-04T04:50:25.818Z,99671.44
2022-12-04T04:55:29.155Z,99658.81
2022-12-04T05:00:30.859Z,99673.00
2022-12-04T05:05:32.507Z,99675.84
2022-12-04T05:10:34.159Z,99666.41
2022-12-04T05:15:35.808Z,99682.84
2022-12-04T05:20:41.098Z,99693.47
2022-12-04T05:25:42.744Z,99667.34
2022-12-04T05:30:44.393Z,99687.22
2022-12-04T05:35:46.037Z,99671.81
2022-12-04T05:40:47.734Z,99679.13
2022-12-04T05:45:49.422Z,99705.00
2022-12-04T05:50:51.171Z,99695.13
2022-12-04T05:55:58.005Z,99688.25
2022-12-04T06:00:59.692Z,99702.34
2022-12-04T06:06:01.386Z,99693.25
2022-12-04T06:11:13.482Z,99696.09
2022-12-04T06:16:27.179Z,99691.34
2022-12-04T06:21:32.178Z,99681.34
2022-12-04T06:26:34.000Z,99687.56
2022-12-04T06:31:36.384Z,99658.03
2022-12-04T06:36:38.167Z,99688.59
2022-12-04T06:41:39.806Z,99696.66
2022-12-04T06:46:46.475Z,99681.22
2022-12-04T06:51:48.877Z,99694.72
2022-12-04T06:56:50.708Z,99705.50
2022-12-04T07:01:52.507Z,99697.56
2022-12-04T07:06:54.695Z,99696.44
2022-12-04T07:11:56.378Z,99689.66
2022-12-04T07:16:58.582Z,99684.34
2022-12-04T07:22:00.387Z,99685.38
2022-12-04T07:27:02.265Z,99697.13
2022-12-04T07:32:04.141Z,99676.13
2022-12-04T07:37:05.864Z,99670.56
2022-12-04T07:42:07.458Z,99688.34
2022-12-04T07:47:09.120Z,99690.94
2022-12-04T07:52:10.789Z,99688.94
2022-12-04T07:57:12.387Z,99701.94
2022-12-04T08:02:14.135Z,99681.72
2022-12-04T08:07:15.795Z,99688.34
2022-12-04T08:12:17.457Z,99690.81
2022-12-04T08:17:19.195Z,99703.59
2022-12-04T08:22:25.072Z,99672.47
2022-12-04T08:27:27.258Z,99699.38
2022-12-04T08:32:28.900Z,99690.94
2022-12-04T08:37:30.619Z,99686.19
2022-12-04T08:42:32.285Z,99685.84
2022-12-04T08:47:33.900Z,99678.28
2022-12-04T08:52:35.767Z,99670.19
2022-12-04T08:57:37.404Z,99691.00
2022-12-04T09:02:39.056Z,99717.06
2022-12-04T09:07:40.788Z,99705.75
2022-12-04T09:12:42.503Z,99731.72
2022-12-04T09:17:44.094Z,99712.41
2022-12-04T09:23:03.551Z,99721.72
2022-12-04T09:28:06.218Z,99725.41
2022-12-04T09:33:07.974Z,99729.50
2022-12-04T09:38:09.582Z,99722.59
2022-12-04T09:43:35.979Z,99703.28
2022-12-04T09:48:42.108Z,99700.59
2022-12-04T09:53:47.679Z,99692.78
2022-12-04T09:58:55.375Z,99694.50
2022-12-04T10:04:02.644Z,99691.88
2022-12-04T10:09:22.300Z,99673.28
2022-12-04T10:14:51.524Z,99684.53
2022-12-04T10:20:26.893Z,99663.28
2022-12-04T10:25:30.599Z,99668.13
2022-12-04T10:30:36.623Z,99690.94
2022-12-04T10:35:41.969Z,99652.78
2022-12-04T10:41:34.242Z,99673.75
2022-12-04T10:46:36.388Z,99677.66
2022-12-04T10:51:42.975Z,99674.25
2022-12-04T10:56:53.763Z,99663.19
2022-12-04T11:06:43.315Z,99618.19
2022-12-04T11:11:51.315Z,99622.88
2022-12-04T11:17:25.322Z,99616.66
2022-12-04T11:22:33.334Z,99628.59
2022-12-04T11:27:43.311Z,99612.13
2022-12-04T11:32:52.360Z,99610.00
2022-12-04T11:38:05.370Z,99602.34
2022-12-04T11:43:16.358Z,99619.81
2022-12-04T11:48:25.361Z,99622.03
2022-12-04T11:53:52.503Z,99617.00
2022-12-04T11:59:22.427Z,99620.88
2022-12-04T12:04:42.430Z,99626.84
2022-12-04T12:10:01.775Z,99589.16
2022-12-04T12:15:42.394Z,99604.19
2022-12-04T12:20:59.439Z,99590.13
2022-12-04T12:26:20.397Z,99585.84
2022-12-04T12:31:49.632Z,99579.31
2022-12-04T12:37:01.088Z,99599.34
2022-12-04T12:42:09.477Z,99602.41
2022-12-04T12:47:26.471Z,99600.19
2022-12-04T12:52:44.460Z,99580.97
2022-12-04T12:58:18.457Z,99584.84
2022-12-04T13:04:12.460Z,99601.13
2022-12-04T13:09:46.487Z,99576.53
2022-12-04T13:14:54.471Z,99601.91
2022-12-04T13:20:09.893Z,99567.84
2022-12-04T13:25:57.499Z,99578.59
2022-12-04T13:31:32.532Z,99574.44
2022-12-04T13:37:19.474Z,99573.41
2022-12-04T13:42:31.490Z,99544.41
2022-12-04T13:47:41.518Z,99548.56
2022-12-04T13:59:26.967Z,99537.47
2022-12-04T14:04:30.830Z,99534.66
2022-12-04T14:09:41.756Z,99499.41
2022-12-04T14:14:54.597Z,99505.13
2022-12-04T14:20:05.775Z,99479.56
2022-12-04T14:25:12.346Z,99484.69
2022-12-04T14:30:20.146Z,99510.59
2022-12-04T14:35:25.042Z,99480.56
2022-12-04T14:40:37.088Z,99510.44
2022-12-04T14:45:57.079Z,99486.25
2022-12-04T14:51:10.858Z,99487.81
2022-12-04T14:56:12.415Z,99493.16
2022-12-04T15:01:28.950Z,99492.75
2022-12-04T15:06:33.394Z,99513.94
2022-12-04T15:11:53.799Z,99501.84
2022-12-04T15:17:04.665Z,99495.84
2022-12-04T15:22:13.747Z,99472.88
2022-12-04T15:27:17.552Z,99470.00
2022-12-04T15:32:22.305Z,99480.97
2022-12-04T15:37:30.040Z,99459.22
2022-12-04T15:42:32.104Z,99465.22
2022-12-04T15:47:50.856Z,99450.34
2022-12-04T15:53:21.155Z,99446.25
2022-12-04T15:58:25.423Z,99452.47
2022-12-04T16:03:34.722Z,99460.41
2022-12-04T16:08:39.450Z,99473.31
2022-12-04T16:13:41.086Z,99487.22
2022-12-04T16:18:45.979Z,99493.72
2022-12-04T16:23:48.131Z,99510.31
2022-12-04T16:28:49.745Z,99480.94
2022-12-04T16:33:51.796Z,99471.06
2022-12-04T16:38:53.475Z,99471.72
2022-12-04T16:43:57.822Z,99469.41
2022-12-04T16:49:04.308Z,99474.41
2022-12-04T16:54:10.474Z,99477.34
2022-12-04T16:59:12.602Z,99487.72
2022-12-04T17:04:15.449Z,99483.16
2022-12-04T17:09:17.427Z,99489.88
2022-12-04T17:14:19.102Z,99487.63
2022-12-04T17:19:20.766Z,99494.19
2022-12-04T17:24:22.382Z,99484.44
2022-12-04T17:29:24.002Z,99494.78
2022-12-04T17:34:25.637Z,99517.91
2022-12-04T17:39:27.270Z,99500.59
2022-12-04T17:44:28.921Z,99507.19
2022-12-04T17:49:31.063Z,99499.38
2022-12-04T17:54:32.878Z,99496.13
2022-12-04T17:59:34.536Z,99501.69
2022-12-04T18:04:36.258Z,99518.97
2022-12-04T18:09:38.243Z,99526.53
2022-12-04T18:14:40.393Z,99533.66
2022-12-04T18:19:42.043Z,99546.72
2022-12-04T18:24:43.798Z,99569.06
2022-12-04T18:29:45.498Z,99544.81
2022-12-04T18:34:47.115Z,99554.22
2022-12-04T18:39:49.878Z,99557.59
2022-12-04T18:44:51.487Z,99551.22
2022-12-04T18:49:53.262Z,99539.09
2022-12-04T18:54:55.007Z,99553.72
2022-12-04T18:59:56.923Z,99607.09
2022-12-04T19:04:58.797Z,99581.81
2022-12-04T19:10:16.061Z,99576.28
2022-12-04T19:15:17.751Z,99566.63
2022-12-04T19:20:21.826Z,99617.75
2022-12-04T19:25:23.623Z,99616.88
2022-12-04T19:30:25.286Z,99620.50
2022-12-04T19:35:26.974Z,99602.63
2022-12-04T19:40:28.699Z,99620.88
2022-12-04T19:45:30.440Z,99646.41
2022-12-04T19:50:33.368Z,99646.94
2022-12-04T19:55:36.466Z,99620.78
2022-12-04T20:00:38.214Z,99636.63
2022-12-04T20:05:39.859Z,99637.78
2022-12-04T20:15:51.191Z,99635.88
2022-12-04T20:20:57.862Z,99633.94
2022-12-04T20:26:04.582Z,99629.44
2022-12-04T20:31:18.509Z,99616.69
2022-12-04T20:36:22.103Z,99628.31
2022-12-04T20:41:25.114Z,99629.03
2022-12-04T20:46:31.688Z,99611.03
2022-12-04T20:51:36.570Z,99625.31
2022-12-04T20:56:38.462Z,99618.53
2022-12-04T21:01:41.064Z,99624.03
2022-12-04T21:06:42.960Z,99597.66
2022-12-04T21:11:50.473Z,99595.47
2022-12-04T21:16:52.223Z,99603.31
2022-12-04T21:21:54.670Z,99605.56
2022-12-04T21:26:56.699Z,99599.31
2022-12-04T21:31:58.334Z,99587.75
2022-12-04T21:37:00.163Z,99598.75
2022-12-04T21:42:20.507Z,99610.72
2022-12-04T21:47:22.852Z,99627.00
2022-12-04T21:52:24.963Z,99628.31
2022-12-04T21:57:28.437Z,99630.88
2022-12-04T22:02:30.355Z,99627.16
2022-12-04T22:07:32.604Z,99647.31
2022-12-04T22:12:50.976Z,99653.81
2022-12-04T22:17:52.824Z,99666.84
2022-12-04T22:22:54.472Z,99663.38
2022-12-04T22:27:57.663Z,99689.56
2022-12-04T22:32:59.772Z,99705.09
2022-12-04T22:38:01.378Z,99705.25
2022-12-04T22:43:03.059Z,99740.38
2022-12-04T22:48:05.100Z,99694.53
2022-12-04T22:53:06.710Z,99681.19
2022-12-04T22:58:08.475Z,99713.38
2022-12-04T23:03:10.370Z,99698.44
2022-12-04T23:08:12.202Z,99713.00
2022-12-04T23:13:13.883Z,99699.19
2022-12-04T23:18:15.615Z,99730.34
2022-12-04T23:23:17.356Z,99720.28
2022-12-04T23:28:19.015Z,99752.06
2022-12-04T23:33:20.677Z,99702.13
2022-12-04T23:38:23.895Z,99746.59
2022-12-04T23:43:25.600Z,99735.75
2022-12-04T23:48:27.939Z,99761.47
2022-12-04T23:53:29.757Z,99752.72
2022-12-04T23:58:32.856Z,99838.88
